sensor_id;sensor_type;location;lat;lon;timestamp;pressure;altitude;pressure_sealevel;temperature;humidity
5952;BME280;3001;42.622;23.194;2022-11-20T00:00:37;90644.88;;;19.50;69.67
5952;BME280;3001;42.622;23.194;2022-11-20T00:03:06;90635.03;;;19.44;70.03
5952;BME280;3001;42.622;23.194;2022-11-20T00:05:32;90619.34;;;19.61;69.60
5952;BME280;3001;42.622;23.194;2022-11-20T00:07:59;90633.97;;;19.52;70.10
5952;BME280;3001;42.622;23.194;2022-11-20T00:10:26;90597.47;;;19.54;69.30
5952;BME280;3001;42.622;23.194;2022-11-20T00:12:53;90609.88;;;19.53;69.27
5952;BME280;3001;42.622;23.194;2022-11-20T00:15:19;90594.41;;;19.45;69.33
5952;BME280;3001;42.622;23.194;2022-11-20T00:17:46;90601.91;;;19.36;69.64
5952;BME280;3001;42.622;23.194;2022-11-20T00:20:14;90574.06;;;19.42;69.86
5952;BME280;3001;42.622;23.194;2022-11-20T00:22:41;90590.94;;;19.27;69.95
5952;BME280;3001;42.622;23.194;2022-11-20T00:25:08;90603.44;;;19.40;69.53
5952;BME280;3001;42.622;23.194;2022-11-20T00:27:35;90618.06;;;19.34;70.07
5952;BME280;3001;42.622;23.194;2022-11-20T00:30:02;90562.00;;;19.37;70.25
5952;BME280;3001;42.622;23.194;2022-11-20T00:32:29;90594.44;;;19.52;70.04
5952;BME280;3001;42.622;23.194;2022-11-20T00:34:56;90583.81;;;19.34;70.70
5952;BME280;3001;42.622;23.194;2022-11-20T00:37:24;90581.56;;;19.36;70.66
5952;BME280;3001;42.622;23.194;2022-11-20T00:39:51;90582.72;;;19.39;70.53
5952;BME280;3001;42.622;23.194;2022-11-20T00:42:18;90587.25;;;19.42;70.76
5952;BME280;3001;42.622;23.194;2022-11-20T00:44:44;90614.00;;;19.51;70.64
5952;BME280;3001;42.622;23.194;2022-11-20T00:47:11;90610.25;;;19.52;70.27
5952;BME280;3001;42.622;23.194;2022-11-20T00:49:38;90616.91;;;19.28;70.68
5952;BME280;3001;42.622;23.194;2022-11-20T00:52:05;90609.09;;;19.49;70.43
5952;BME280;3001;42.622;23.194;2022-11-20T00:54:33;90610.63;;;19.54;70.32
5952;BME280;3001;42.622;23.194;2022-11-20T00:56:59;90612.50;;;19.53;70.57
5952;BME280;3001;42.622;23.194;2022-11-20T00:59:26;90600.00;;;19.33;nan
5952;BME280;3001;42.622;23.194;2022-11-20T01:01:53;90610.91;;;19.35;71.03
5952;BME280;3001;42.622;23.194;2022-11-20T01:04:19;90611.75;;;19.49;70.92
5952;BME280;3001;42.622;23.194;2022-11-20T01:06:46;90608.66;;;19.37;71.15
5952;BME280;3001;42.622;23.194;2022-11-20T01:09:13;90597.47;;;19.54;70.93
5952;BME280;3001;42.622;23.194;2022-11-20T01:11:43;90595.91;;;19.46;70.80
5952;BME280;3001;42.622;23.194;2022-11-20T01:14:12;90613.13;;;19.23;70.96
5952;BME280;3001;42.622;23.194;2022-11-20T01:16:41;90567.31;;;19.48;70.03
5952;BME280;3001;42.622;23.194;2022-11-20T01:19:12;90587.56;;;19.33;70.24
5952;BME280;3001;42.622;23.194;2022-11-20T01:21:40;90582.78;;;19.56;69.62
5952;BME280;3001;42.622;23.194;2022-11-20T01:24:09;90595.25;;;19.66;68.97
5952;BME280;3001;42.622;23.194;2022-11-20T01:26:38;90585.41;;;19.49;69.24
5952;BME280;3001;42.622;23.194;2022-11-20T01:29:08;90567.69;;;19.43;68.73
5952;BME280;3001;42.622;23.194;2022-11-20T01:31:37;90562.09;;;19.55;68.80
5952;BME280;3001;42.622;23.194;2022-11-20T01:34:06;90577.16;;;19.61;68.59
5952;BME280;3001;42.622;23.194;2022-11-20T01:36:34;90555.22;;;19.29;68.90
5952;BME280;3001;42.622;23.194;2022-11-20T01:39:04;90563.22;;;19.54;68.47
5952;BME280;3001;42.622;23.194;2022-11-20T01:41:33;90553.38;;;19.44;68.00
5952;BME280;3001;42.622;23.194;2022-11-20T01:44:21;90563.94;;;19.47;68.23
5952;BME280;3001;42.622;23.194;2022-11-20T01:46:53;90550.72;;;19.37;68.02
5952;BME280;3001;42.622;23.194;2022-11-20T01:49:26;90560.50;;;19.36;68.76
5952;BME280;3001;42.622;23.194;2022-11-20T01:51:57;90566.16;;;19.42;68.42
5952;BME280;3001;42.622;23.194;2022-11-20T01:54:28;90561.97;;;19.30;68.81
5952;BME280;3001;42.622;23.194;2022-11-20T01:56:58;90557.16;;;19.50;68.60
5952;BME280;3001;42.622;23.194;2022-11-20T01:59:28;90566.53;;;19.37;68.45
5952;BME280;3001;42.622;23.194;2022-11-20T02:01:56;90578.94;;;19.36;68.33
5952;BME280;3001;42.622;23.194;2022-11-20T02:04:24;90591.81;;;19.55;67.76
5952;BME280;3001;42.622;23.194;2022-11-20T02:06:57;90605.75;;;19.59;67.38
5952;BME280;3001;42.622;23.194;2022-11-20T02:09:26;90599.66;;;19.41;67.41
5952;BME280;3001;42.622;23.194;2022-11-20T02:11:53;90607.22;;;19.53;67.35
5952;BME280;3001;42.622;23.194;2022-11-20T02:14:21;90609.47;;;19.48;67.37
5952;BME280;3001;42.622;23.194;2022-11-20T02:16:49;90579.38;;;19.52;67.38
5952;BME280;3001;42.622;23.194;2022-11-20T02:19:21;90600.91;;;19.68;67.46
5952;BME280;3001;42.622;23.194;2022-11-20T02:21:53;90616.31;;;19.70;66.81
5952;BME280;3001;42.622;23.194;2022-11-20T02:24:24;90611.00;;;19.52;67.35
5952;BME280;3001;42.622;23.194;2022-11-20T02:26:53;90606.19;;;19.75;67.11
5952;BME280;3001;42.622;23.194;2022-11-20T02:29:24;90605.44;;;19.71;66.93
5952;BME280;3001;42.622;23.194;2022-11-20T02:31:53;90600.47;;;19.56;67.63
5952;BME280;3001;42.622;23.194;2022-11-20T02:34:21;90598.31;;;19.86;67.04
5952;BME280;3001;42.622;23.194;2022-11-20T02:36:49;90604.19;;;19.44;68.20
5952;BME280;3001;42.622;23.194;2022-11-20T02:39:17;90607.91;;;19.33;69.17
5952;BME280;3001;42.622;23.194;2022-11-20T02:41:47;90614.03;;;19.58;68.90
5952;BME280;3001;42.622;23.194;2022-11-20T02:44:13;90630.53;;;19.48;69.39
5952;BME280;3001;42.622;23.194;2022-11-20T02:46:40;90635.69;;;19.27;70.08
5952;BME280;3001;42.622;23.194;2022-11-20T02:49:07;90631.66;;;19.43;69.88
5952;BME280;3001;42.622;23.194;2022-11-20T03:02:29;90661.53;;;19.72;69.06
5952;BME280;3001;42.622;23.194;2022-11-20T03:04:56;90668.69;;;19.75;69.06
5952;BME280;3001;42.622;23.194;2022-11-20T03:07:23;90650.16;;;19.57;69.65
5952;BME280;3001;42.622;23.194;2022-11-20T03:09:49;90667.03;;;19.42;70.40
5952;BME280;3001;42.622;23.194;2022-11-20T03:12:16;90649.38;;;19.46;70.63
5952;BME280;3001;42.622;23.194;2022-11-20T03:14:43;90681.66;;;19.36;70.86
5952;BME280;3001;42.622;23.194;2022-11-20T03:17:10;90672.19;;;19.25;71.41
5952;BME280;3001;42.622;23.194;2022-11-20T03:19:38;90671.84;;;19.33;71.28
5952;BME280;3001;42.622;23.194;2022-11-20T03:22:04;90671.75;;;19.20;71.71
5952;BME280;3001;42.622;23.194;2022-11-20T03:24:31;90672.19;;;19.25;71.24
5952;BME280;3001;42.622;23.194;2022-11-20T03:26:58;90678.59;;;19.27;71.54
5952;BME280;3001;42.622;23.194;2022-11-20T03:29:25;90673.28;;;19.24;71.37
5952;BME280;3001;42.622;23.194;2022-11-20T03:31:52;90671.50;;;19.35;71.25
5952;BME280;3001;42.622;23.194;2022-11-20T03:34:18;90674.03;;;19.21;71.40
5952;BME280;3001;42.622;23.194;2022-11-20T03:36:47;90670.31;;;19.26;71.18
5952;BME280;3001;42.622;23.194;2022-11-20T03:39:13;90669.59;;;19.32;70.58
5952;BME280;3001;42.622;23.194;2022-11-20T03:41:41;90674.13;;;19.38;70.43
5952;BME280;3001;42.622;23.194;2022-11-20T03:44:10;90672.97;;;19.32;70.50
5952;BME280;3001;42.622;23.194;2022-11-20T03:46:37;90672.78;;;19.08;71.34
5952;BME280;3001;42.622;23.194;2022-11-20T03:49:04;90666.97;;;19.32;70.94
5952;BME280;3001;42.622;23.194;2022-11-20T03:51:32;90661.34;;;19.37;70.49
5952;BME280;3001;42.622;23.194;2022-11-20T03:54:03;90680.88;;;19.32;71.10
5952;BME280;3001;42.622;23.194;2022-11-20T03:56:32;90675.66;;;19.39;70.72
5952;BME280;3001;42.622;23.194;2022-11-20T03:58:59;90674.88;;;19.35;70.94
5952;BME280;3001;42.622;23.194;2022-11-20T04:01:29;90681.69;;;19.40;70.51
5952;BME280;3001;42.622;23.194;2022-11-20T04:03:57;90686.75;;;19.16;71.00
5952;BME280;3001;42.622;23.194;2022-11-20T04:06:25;90679.72;;;19.27;70.42
5952;BME280;3001;42.622;23.194;2022-11-20T04:08:54;90676.78;;;19.42;69.98
5952;BME280;3001;42.622;23.194;2022-11-20T04:11:24;90680.66;;;19.58;69.93
5952;BME280;3001;42.622;23.194;2022-11-20T04:13:53;90674.53;;;19.40;69.49
5952;BME280;3001;42.622;23.194;2022-11-20T04:16:21;90677.63;;;19.56;69.20
5952;BME280;3001;42.622;23.194;2022-11-20T04:18:51;90679.19;;;19.68;68.96
5952;BME280;3001;42.622;23.194;2022-11-20T04:21:19;90682.53;;;19.58;68.99
5952;BME280;3001;42.622;23.194;2022-11-20T04:23:46;90693.44;;;19.53;69.11
5952;BME280;3001;42.622;23.194;2022-11-20T04:26:12;90697.84;;;19.38;69.42
5952;BME280;3001;42.622;23.194;2022-11-20T04:28:41;90721.63;;;19.45;69.50
5952;BME280;3001;42.622;23.194;2022-11-20T04:31:09;90689.69;;;19.54;69.45
5952;BME280;3001;42.622;23.194;2022-11-20T04:33:37;90700.88;;;19.40;70.13
5952;BME280;3001;42.622;23.194;2022-11-20T04:36:05;90687.72;;;19.40;70.01
5952;BME280;3001;42.622;23.194;2022-11-20T04:38:33;90694.50;;;19.41;70.34
5952;BME280;3001;42.622;23.194;2022-11-20T04:41:01;90683.22;;;19.48;70.01
5952;BME280;3001;42.622;23.194;2022-11-20T04:43:29;90693.06;;;19.58;70.09
5952;BME280;3001;42.622;23.194;2022-11-20T04:45:58;90686.19;;;19.36;70.72
5952;BME280;3001;42.622;23.194;2022-11-20T04:48:26;90695.22;;;19.38;70.59
5952;BME280;3001;42.622;23.194;2022-11-20T04:50:53;90671.88;;;19.37;71.15
5952;BME280;3001;42.622;23.194;2022-11-20T04:53:21;90658.38;;;19.45;70.80
5952;BME280;3001;42.622;23.194;2022-11-20T04:55:48;90670.00;;;19.34;71.51
5952;BME280;3001;42.622;23.194;2022-11-20T04:58:16;90673.97;;;19.14;72.36
5952;BME280;3001;42.622;23.194;2022-11-20T05:00:42;90675.97;;;19.27;72.16
5952;BME280;3001;42.622;23.194;2022-11-20T05:03:11;90656.78;;;19.30;72.25
5952;BME280;3001;42.622;23.194;2022-11-20T05:05:37;90657.03;;;19.12;72.83
5952;BME280;3001;42.622;23.194;2022-11-20T05:08:04;90633.69;;;19.07;73.67
5952;BME280;3001;42.622;23.194;2022-11-20T05:10:31;90628.72;;;18.98;74.46
5952;BME280;3001;42.622;23.194;2022-11-20T05:12:57;90621.97;;;19.01;74.54
5952;BME280;3001;42.622;23.194;2022-11-20T05:15:24;90627.88;;;18.84;75.44
5952;BME280;3001;42.622;23.194;2022-11-20T05:17:52;90635.00;;;18.80;75.90
5952;BME280;3001;42.622;23.194;2022-11-20T05:20:20;90646.50;;;18.61;76.43
5952;BME280;3001;42.622;23.194;2022-11-20T05:22:47;90631.94;;;18.74;76.22
5952;BME280;3001;42.622;23.194;2022-11-20T05:25:14;90632.59;;;18.64;76.20
5952;BME280;3001;42.622;23.194;2022-11-20T05:27:41;90629.56;;;18.59;76.53
5952;BME280;3001;42.622;23.194;2022-11-20T05:30:09;90639.50;;;18.79;75.62
5952;BME280;3001;42.622;23.194;2022-11-20T05:32:36;90648.47;;;18.71;75.84
5952;BME280;3001;42.622;23.194;2022-11-20T05:35:03;90642.94;;;18.87;75.22
5952;BME280;3001;42.622;23.194;2022-11-20T05:37:31;90639.13;;;18.81;75.30
5952;BME280;3001;42.622;23.194;2022-11-20T05:39:58;90632.38;;;18.80;75.22
5952;BME280;3001;42.622;23.194;2022-11-20T05:42:25;90634.53;;;18.71;75.19
5952;BME280;3001;42.622;23.194;2022-11-20T05:44:58;90651.09;;;18.71;74.91
5952;BME280;3001;42.622;23.194;2022-11-20T05:47:24;90652.06;;;19.00;74.11
5952;BME280;3001;42.622;23.194;2022-11-20T05:49:51;90662.91;;;18.91;74.16
5952;BME280;3001;42.622;23.194;2022-11-20T05:52:18;90652.69;;;18.83;75.28
5952;BME280;3001;42.622;23.194;2022-11-20T05:54:46;90656.38;;;18.75;74.66
5952;BME280;3001;42.622;23.194;2022-11-20T05:57:13;90644.53;;;18.55;75.84
5952;BME280;3001;42.622;23.194;2022-11-20T05:59:40;90659.69;;;18.65;75.44
5952;BME280;3001;42.622;23.194;2022-11-20T06:02:07;90645.88;;;18.78;75.01
5952;BME280;3001;42.622;23.194;2022-11-20T06:04:34;90651.31;;;19.03;74.60
5952;BME280;3001;42.622;23.194;2022-11-20T06:07:01;90649.50;;;19.14;73.90
5952;BME280;3001;42.622;23.194;2022-11-20T06:09:27;90655.63;;;18.78;75.15
5952;BME280;3001;42.622;23.194;2022-11-20T06:11:55;90657.16;;;18.79;74.96
5952;BME280;3001;42.622;23.194;2022-11-20T06:14:22;90667.66;;;18.79;74.99
5952;BME280;3001;42.622;23.194;2022-11-20T06:16:49;90671.38;;;18.71;75.13
5952;BME280;3001;42.622;23.194;2022-11-20T06:19:16;90668.41;;;18.76;75.30
5952;BME280;3001;42.622;23.194;2022-11-20T06:21:43;90673.41;;;18.88;75.20
5952;BME280;3001;42.622;23.194;2022-11-20T06:24:10;90676.81;;;18.92;74.96
5952;BME280;3001;42.622;23.194;2022-11-20T06:26:37;90673.47;;;18.98;74.79
5952;BME280;3001;42.622;23.194;2022-11-20T06:29:05;90672.00;;;19.01;74.77
5952;BME280;3001;42.622;23.194;2022-11-20T06:31:32;90676.16;;;19.05;74.69
5952;BME280;3001;42.622;23.194;2022-11-20T06:34:00;90679.28;;;19.18;74.45
5952;BME280;3001;42.622;23.194;2022-11-20T06:36:27;90674.94;;;19.42;73.73
5952;BME280;3001;42.622;23.194;2022-11-20T06:38:53;90689.47;;;19.26;73.75
5952;BME280;3001;42.622;23.194;2022-11-20T06:41:21;90694.81;;;19.33;73.93
5952;BME280;3001;42.622;23.194;2022-11-20T06:43:48;90689.00;;;19.14;73.95
5952;BME280;3001;42.622;23.194;2022-11-20T06:46:18;90691.97;;;19.09;74.35
5952;BME280;3001;42.622;23.194;2022-11-20T06:48:45;90698.03;;;19.13;73.55
5952;BME280;3001;42.622;23.194;2022-11-20T06:51:13;90688.22;;;19.10;74.05
5952;BME280;3001;42.622;23.194;2022-11-20T06:53:39;90688.22;;;19.10;74.32
5952;BME280;3001;42.622;23.194;2022-11-20T06:56:07;90695.13;;;19.25;74.25
5952;BME280;3001;42.622;23.194;2022-11-20T06:58:35;90702.72;;;19.33;74.14
5952;BME280;3001;42.622;23.194;2022-11-20T07:01:03;90709.72;;;19.15;74.49
5952;BME280;3001;42.622;23.194;2022-11-20T07:03:32;90714.94;;;19.12;75.31
5952;BME280;3001;42.622;23.194;2022-11-20T07:05:59;90726.50;;;19.00;75.14
5952;BME280;3001;42.622;23.194;2022-11-20T07:08:27;90723.91;;;19.04;75.36
5952;BME280;3001;42.622;23.194;2022-11-20T07:10:57;90719.69;;;18.96;75.74
5952;BME280;3001;42.622;23.194;2022-11-20T07:13:25;90721.19;;;18.97;75.69
5952;BME280;3001;42.622;23.194;2022-11-20T07:15:52;90727.19;;;18.94;76.10
5952;BME280;3001;42.622;23.194;2022-11-20T07:18:18;90721.59;;;18.99;76.20
5952;BME280;3001;42.622;23.194;2022-11-20T07:20:46;90733.25;;;18.98;76.74
5952;BME280;3001;42.622;23.194;2022-11-20T07:23:13;90727.66;;;19.03;76.22
5952;BME280;3001;42.622;23.194;2022-11-20T07:25:40;90726.25;;;19.12;76.39
5952;BME280;3001;42.622;23.194;2022-11-20T07:28:07;90726.53;;;19.04;75.83
5952;BME280;3001;42.622;23.194;2022-11-20T07:30:36;90730.38;;;19.13;75.91
5952;BME280;3001;42.622;23.194;2022-11-20T07:33:03;90724.31;;;19.09;75.62
5952;BME280;3001;42.622;23.194;2022-11-20T07:35:29;90719.44;;;19.08;75.11
5952;BME280;3001;42.622;23.194;2022-11-20T07:37:57;90723.22;;;19.14;74.92
5952;BME280;3001;42.622;23.194;2022-11-20T07:40:24;90716.91;;;19.18;74.64
5952;BME280;3001;42.622;23.194;2022-11-20T07:42:52;90716.91;;;19.18;74.73
5952;BME280;3001;42.622;23.194;2022-11-20T07:45:21;90703.22;;;19.02;74.55
5952;BME280;3001;42.622;23.194;2022-11-20T07:47:48;90709.22;;;18.99;73.66
5952;BME280;3001;42.622;23.194;2022-11-20T07:50:16;90704.03;;;19.10;73.66
5952;BME280;3001;42.622;23.194;2022-11-20T07:52:44;90713.53;;;19.21;74.20
5952;BME280;3001;42.622;23.194;2022-11-20T07:55:12;90719.16;;;19.20;74.24
5952;BME280;3001;42.622;23.194;2022-11-20T07:57:39;90727.84;;;19.24;74.13
5952;BME280;3001;42.622;23.194;2022-11-20T08:00:08;90732.81;;;19.32;73.78
5952;BME280;3001;42.622;23.194;2022-11-20T08:02:36;90725.19;;;19.20;74.15
5952;BME280;3001;42.622;23.194;2022-11-20T08:05:05;90728.47;;;19.10;75.40
5952;BME280;3001;42.622;23.194;2022-11-20T08:07:35;90737.34;;;19.35;74.84
5952;BME280;3001;42.622;23.194;2022-11-20T08:10:02;90735.84;;;19.37;75.58
5952;BME280;3001;42.622;23.194;2022-11-20T08:12:30;90730.50;;;19.24;76.47
5952;BME280;3001;42.622;23.194;2022-11-20T08:15:15;90722.97;;;19.26;78.19
5952;BME280;3001;42.622;23.194;2022-11-20T08:17:41;90722.28;;;19.32;77.94
5952;BME280;3001;42.622;23.194;2022-11-20T08:20:09;90731.22;;;19.24;79.43
5952;BME280;3001;42.622;23.194;2022-11-20T08:22:36;90724.00;;;19.14;79.25
5952;BME280;3001;42.622;23.194;2022-11-20T08:25:03;90738.72;;;19.19;80.11
5952;BME280;3001;42.622;23.194;2022-11-20T08:27:32;90734.84;;;19.09;80.58
5952;BME280;3001;42.622;23.194;2022-11-20T08:29:59;90733.06;;;18.77;81.00
5952;BME280;3001;42.622;23.194;2022-11-20T08:32:26;90718.09;;;18.84;82.36
5952;BME280;3001;42.622;23.194;2022-11-20T08:34:52;90742.38;;;18.67;82.40
5952;BME280;3001;42.622;23.194;2022-11-20T08:37:19;90746.41;;;18.58;82.93
5952;BME280;3001;42.622;23.194;2022-11-20T08:39:46;90757.44;;;18.34;85.74
5952;BME280;3001;42.622;23.194;2022-11-20T08:42:13;90750.03;;;18.43;86.56
5952;BME280;3001;42.622;23.194;2022-11-20T08:44:41;90771.25;;;18.27;88.50
5952;BME280;3001;42.622;23.194;2022-11-20T08:47:08;90759.22;;;17.97;89.48
5952;BME280;3001;42.622;23.194;2022-11-20T08:49:35;90759.44;;;17.85;91.39
5952;BME280;3001;42.622;23.194;2022-11-20T08:52:02;90764.06;;;17.95;91.99
5952;BME280;3001;42.622;23.194;2022-11-20T08:54:29;90765.88;;;17.87;92.46
5952;BME280;3001;42.622;23.194;2022-11-20T08:56:55;90761.72;;;17.86;92.36
5952;BME280;3001;42.622;23.194;2022-11-20T08:59:22;90753.94;;;17.93;92.52
5952;BME280;3001;42.622;23.194;2022-11-20T09:01:50;90751.31;;;17.97;92.80
5952;BME280;3001;42.622;23.194;2022-11-20T09:04:17;90760.44;;;17.73;93.33
5952;BME280;3001;42.622;23.194;2022-11-20T09:06:43;90764.44;;;17.38;93.56
5952;BME280;3001;42.622;23.194;2022-11-20T09:09:10;90766.44;;;17.48;94.75
5952;BME280;3001;42.622;23.194;2022-11-20T09:11:37;90767.97;;;17.49;93.43
5952;BME280;3001;42.622;23.194;2022-11-20T09:14:04;90769.28;;;17.62;93.68
5952;BME280;3001;42.622;23.194;2022-11-20T09:16:31;90774.13;;;17.60;94.98
5952;BME280;3001;42.622;23.194;2022-11-20T09:18:59;90768.16;;;17.63;94.96
5952;BME280;3001;42.622;23.194;2022-11-20T09:21:25;90773.44;;;17.63;93.50
5952;BME280;3001;42.622;23.194;2022-11-20T09:23:52;90776.22;;;17.48;93.72
5952;BME280;3001;42.622;23.194;2022-11-20T09:26:19;90775.50;;;17.28;93.18
5952;BME280;3001;42.622;23.194;2022-11-20T09:28:45;90768.34;;;17.48;93.15
5952;BME280;3001;42.622;23.194;2022-11-20T09:31:19;90765.25;;;17.42;93.58
5952;BME280;3001;42.622;23.194;2022-11-20T09:33:47;90753.63;;;17.21;95.63
5952;BME280;3001;42.622;23.194;2022-11-20T09:36:15;90733.03;;;17.23;96.08
5952;BME280;3001;42.622;23.194;2022-11-20T09:38:43;90736.69;;;17.37;95.74
5952;BME280;3001;42.622;23.194;2022-11-20T09:41:24;90727.69;;;17.38;93.89
5952;BME280;3001;42.622;23.194;2022-11-20T09:43:59;90721.88;;;17.51;94.04
5952;BME280;3001;42.622;23.194;2022-11-20T09:46:38;90723.69;;;17.48;95.40
5952;BME280;3001;42.622;23.194;2022-11-20T09:49:22;90730.38;;;17.71;94.04
5952;BME280;3001;42.622;23.194;2022-11-20T09:51:57;90721.28;;;17.65;93.99
5952;BME280;3001;42.622;23.194;2022-11-20T09:54:29;90717.75;;;17.80;94.15
5952;BME280;3001;42.622;23.194;2022-11-20T09:56:59;90723.25;;;17.71;94.53
5952;BME280;3001;42.622;23.194;2022-11-20T09:59:35;90715.00;;;17.73;95.52
5952;BME280;3001;42.622;23.194;2022-11-20T10:02:15;90707.66;;;17.85;95.08
5952;BME280;3001;42.622;23.194;2022-11-20T10:04:45;90705.56;;;17.98;95.15
5952;BME280;3001;42.622;23.194;2022-11-20T10:07:20;90704.56;;;18.09;92.89
5952;BME280;3001;42.622;23.194;2022-11-20T10:09:51;90695.44;;;18.33;93.35
5952;BME280;3001;42.622;23.194;2022-11-20T10:12:26;90685.56;;;18.26;91.65
5952;BME280;3001;42.622;23.194;2022-11-20T10:15:07;90693.69;;;18.44;91.70
5952;BME280;3001;42.622;23.194;2022-11-20T10:18:11;90693.84;;;18.25;93.23
5952;BME280;3001;42.622;23.194;2022-11-20T10:20:46;90701.81;;;18.32;92.54
5952;BME280;3001;42.622;23.194;2022-11-20T10:23:31;90697.47;;;18.13;91.47
5952;BME280;3001;42.622;23.194;2022-11-20T10:26:04;90699.91;;;18.29;91.67
5952;BME280;3001;42.622;23.194;2022-11-20T10:28:48;90709.69;;;18.28;92.00
5952;BME280;3001;42.622;23.194;2022-11-20T10:31:30;90722.25;;;18.12;92.39
5952;BME280;3001;42.622;23.194;2022-11-20T10:34:02;90708.31;;;18.08;92.50
5952;BME280;3001;42.622;23.194;2022-11-20T10:36:35;90694.28;;;17.97;92.49
5952;BME280;3001;42.622;23.194;2022-11-20T10:39:11;90703.22;;;17.93;93.51
5952;BME280;3001;42.622;23.194;2022-11-20T10:41:42;90710.44;;;17.99;94.04
5952;BME280;3001;42.622;23.194;2022-11-20T10:44:14;90708.47;;;17.89;94.28
5952;BME280;3001;42.622;23.194;2022-11-20T10:47:03;90715.66;;;17.96;94.24
5952;BME280;3001;42.622;23.194;2022-11-20T10:49:31;90709.53;;;18.18;92.89
5952;BME280;3001;42.622;23.194;2022-11-20T10:52:05;90722.06;;;18.28;92.61
5952;BME280;3001;42.622;23.194;2022-11-20T10:54:43;90712.97;;;18.22;93.46
5952;BME280;3001;42.622;23.194;2022-11-20T10:57:32;90783.63;;;17.97;95.11
5952;BME280;3001;42.622;23.194;2022-11-20T11:00:07;90797.94;;;17.70;90.75
5952;BME280;3001;42.622;23.194;2022-11-20T11:02:41;90795.53;;;17.36;88.10
5952;BME280;3001;42.622;23.194;2022-11-20T11:05:14;90760.59;;;16.87;82.21
5952;BME280;3001;42.622;23.194;2022-11-20T11:07:45;90757.22;;;16.64;84.68
5952;BME280;3001;42.622;23.194;2022-11-20T11:10:19;90722.16;;;16.31;86.36
5952;BME280;3001;42.622;23.194;2022-11-20T11:12:47;90730.66;;;15.86;88.31
5952;BME280;3001;42.622;23.194;2022-11-20T11:15:25;90737.41;;;15.68;90.76
5952;BME280;3001;42.622;23.194;2022-11-20T11:17:53;90754.91;;;15.64;90.16
5952;BME280;3001;42.622;23.194;2022-11-20T11:20:21;90725.69;;;15.63;91.54
5952;BME280;3001;42.622;23.194;2022-11-20T11:22:49;90717.31;;;15.38;93.16
5952;BME280;3001;42.622;23.194;2022-11-20T11:25:27;90717.00;;;15.59;91.91
5952;BME280;3001;42.622;23.194;2022-11-20T11:27:57;90705.72;;;15.55;93.84
5952;BME280;3001;42.622;23.194;2022-11-20T11:30:25;90712.41;;;15.71;92.14
5952;BME280;3001;42.622;23.194;2022-11-20T11:33:03;90699.84;;;15.61;90.80
5952;BME280;3001;42.622;23.194;2022-11-20T11:35:30;90709.09;;;15.74;91.07
5952;BME280;3001;42.622;23.194;2022-11-20T11:38:03;90713.91;;;15.53;89.81
5952;BME280;3001;42.622;23.194;2022-11-20T11:40:34;90701.22;;;15.74;90.75
5952;BME280;3001;42.622;23.194;2022-11-20T11:43:05;90725.28;;;15.61;89.97
5952;BME280;3001;42.622;23.194;2022-11-20T11:45:54;90721.13;;;15.41;88.63
5952;BME280;3001;42.622;23.194;2022-11-20T11:48:20;90716.53;;;15.72;90.40
5952;BME280;3001;42.622;23.194;2022-11-20T11:50:50;90714.69;;;15.72;90.80
5952;BME280;3001;42.622;23.194;2022-11-20T11:53:18;90715.00;;;15.52;91.20
5952;BME280;3001;42.622;23.194;2022-11-20T11:55:51;90717.16;;;15.65;88.96
5952;BME280;3001;42.622;23.194;2022-11-20T11:58:34;90723.56;;;15.68;90.28
5952;BME280;3001;42.622;23.194;2022-11-20T12:01:16;90699.19;;;15.64;89.32
5952;BME280;3001;42.622;23.194;2022-11-20T12:03:53;90729.00;;;15.60;90.49
5952;BME280;3001;42.622;23.194;2022-11-20T12:06:22;90705.31;;;15.53;90.94
5952;BME280;3001;42.622;23.194;2022-11-20T12:08:53;90697.25;;;15.42;90.62
5952;BME280;3001;42.622;23.194;2022-11-20T12:11:32;90695.25;;;15.55;91.48
5952;BME280;3001;42.622;23.194;2022-11-20T12:14:04;90693.31;;;15.70;90.23
5952;BME280;3001;42.622;23.194;2022-11-20T12:16:36;90680.22;;;15.52;88.92
5952;BME280;3001;42.622;23.194;2022-11-20T12:19:08;90676.94;;;15.55;88.81
5952;BME280;3001;42.622;23.194;2022-11-20T12:21:44;90684.69;;;15.70;88.52
5952;BME280;3001;42.622;23.194;2022-11-20T12:24:31;90711.91;;;15.65;88.88
5952;BME280;3001;42.622;23.194;2022-11-20T12:30:00;90643.34;;;15.60;88.82
5952;BME280;3001;42.622;23.194;2022-11-20T12:32:44;90650.59;;;15.66;86.40
5952;BME280;3001;42.622;23.194;2022-11-20T12:35:28;90658.03;;;15.46;89.49
5952;BME280;3001;42.622;23.194;2022-11-20T12:38:19;90656.19;;;15.46;89.24
5952;BME280;3001;42.622;23.194;2022-11-20T12:40:56;90659.47;;;15.62;89.71
5952;BME280;3001;42.622;23.194;2022-11-20T12:43:32;90654.78;;;15.90;88.85
5952;BME280;3001;42.622;23.194;2022-11-20T12:46:29;90652.50;;;15.88;88.83
5952;BME280;3001;42.622;23.194;2022-11-20T12:49:12;90658.19;;;16.13;86.86
5952;BME280;3001;42.622;23.194;2022-11-20T12:51:55;90650.66;;;16.11;90.07
5952;BME280;3001;42.622;23.194;2022-11-20T12:54:46;90653.97;;;16.08;90.61
5952;BME280;3001;42.622;23.194;2022-11-20T12:57:21;90651.00;;;16.32;90.34
5952;BME280;3001;42.622;23.194;2022-11-20T13:00:01;90649.50;;;16.31;91.85
5952;BME280;3001;42.622;23.194;2022-11-20T13:02:55;90631.25;;;16.35;92.33
5952;BME280;3001;42.622;23.194;2022-11-20T13:05:31;90631.25;;;16.57;92.93
5952;BME280;3001;42.622;23.194;2022-11-20T13:08:01;90618.84;;;16.54;92.78
5952;BME280;3001;42.622;23.194;2022-11-20T13:10:33;90630.94;;;16.88;92.48
5952;BME280;3001;42.622;23.194;2022-11-20T13:13:08;90642.47;;;16.80;92.75
5952;BME280;3001;42.622;23.194;2022-11-20T13:15:48;90645.19;;;16.87;92.41
5952;BME280;3001;42.622;23.194;2022-11-20T13:18:19;90649.00;;;16.93;91.05
5952;BME280;3001;42.622;23.194;2022-11-20T13:20:46;90649.28;;;17.14;90.60
5952;BME280;3001;42.622;23.194;2022-11-20T13:23:23;90658.28;;;17.13;90.48
5952;BME280;3001;42.622;23.194;2022-11-20T13:25:52;90656.75;;;17.09;90.25
5952;BME280;3001;42.622;23.194;2022-11-20T13:28:30;90658.41;;;17.20;89.85
5952;BME280;3001;42.622;23.194;2022-11-20T13:30:58;90663.50;;;17.36;89.94
5952;BME280;3001;42.622;23.194;2022-11-20T13:33:29;90659.38;;;17.35;90.76
5952;BME280;3001;42.622;23.194;2022-11-20T13:35:59;90656.31;;;17.33;89.83
5952;BME280;3001;42.622;23.194;2022-11-20T13:38:27;90665.34;;;17.35;90.06